sensor_id;sensor_type;location;lat;lon;timestamp;temperature;humidity
23114;DHT22;11726;50.122;8.832;2022-12-10T00:01:09;1.40;99.90
23114;DHT22;11726;50.122;8.832;2022-12-10T00:03:35;1.40;99.90
23114;DHT22;11726;50.122;8.832;2022-12-10T00:06:04;1.40;99.90
23114;DHT22;11726;50.122;8.832;2022-12-10T00:08:30;1.40;99.90
23114;DHT22;11726;50.122;8.832;2022-12-10T00:10:57;1.50;99.90
23114;DHT22;11726;50.122;8.832;2022-12-10T00:13:23;1.40;99.90
23114;DHT22;11726;50.122;8.832;2022-12-10T00:15:50;1.40;99.90
23114;DHT22;11726;50.122;8.832;2022-12-10T00:18:16;1.40;99.90
23114;DHT22;11726;50.122;8.832;2022-12-10T00:20:43;1.40;99.90
23114;DHT22;11726;50.122;8.832;2022-12-10T00:23:09;1.40;99.90
23114;DHT22;11726;50.122;8.832;2022-12-10T00:25:36;1.30;99.90
23114;DHT22;11726;50.122;8.832;2022-12-10T00:28:03;1.40;99.90
23114;DHT22;11726;50.122;8.832;2022-12-10T00:30:29;1.40;99.90
23114;DHT22;11726;50.122;8.832;2022-12-10T00:32:56;1.30;99.90
23114;DHT22;11726;50.122;8.832;2022-12-10T00:35:22;1.30;99.90
23114;DHT22;11726;50.122;8.832;2022-12-10T00:37:49;1.30;99.90
23114;DHT22;11726;50.122;8.832;2022-12-10T00:40:15;1.30;99.90
23114;DHT22;11726;50.122;8.832;2022-12-10T00:42:42;1.30;99.90
23114;DHT22;11726;50.122;8.832;2022-12-10T00:45:08;1.30;99.90
23114;DHT22;11726;50.122;8.832;2022-12-10T00:47:35;1.30;99.90
23114;DHT22;11726;50.122;8.832;2022-12-10T00:50:01;1.30;99.90
23114;DHT22;11726;50.122;8.832;2022-12-10T00:52:28;1.30;99.90
23114;DHT22;11726;50.122;8.832;2022-12-10T00:54:55;1.30;99.90
23114;DHT22;11726;50.122;8.832;2022-12-10T00:57:21;1.30;99.90
23114;DHT22;11726;50.122;8.832;2022-12-10T00:59:48;1.30;99.90
23114;DHT22;11726;50.122;8.832;2022-12-10T01:02:14;1.30;99.90
23114;DHT22;11726;50.122;8.832;2022-12-10T01:04:41;1.30;99.90
23114;DHT22;11726;50.122;8.832;2022-12-10T01:07:07;1.20;99.90
23114;DHT22;11726;50.122;8.832;2022-12-10T01:09:36;1.20;99.90
23114;DHT22;11726;50.122;8.832;2022-12-10T01:12:03;1.30;99.90
23114;DHT22;11726;50.122;8.832;2022-12-10T01:14:30;1.30;99.90
23114;DHT22;11726;50.122;8.832;2022-12-10T01:16:58;1.30;99.90
23114;DHT22;11726;50.122;8.832;2022-12-10T01:19:25;1.30;99.90
23114;DHT22;11726;50.122;8.832;2022-12-10T01:21:52;1.10;99.90
23114;DHT22;11726;50.122;8.832;2022-12-10T01:24:19;1.10;99.90
23114;DHT22;11726;50.122;8.832;2022-12-10T01:26:46;1.10;99.90
23114;DHT22;11726;50.122;8.832;2022-12-10T01:29:13;1.10;99.90
23114;DHT22;11726;50.122;8.832;2022-12-10T01:31:40;1.10;99.90
23114;DHT22;11726;50.122;8.832;2022-12-10T01:34:09;1.00;99.90
23114;DHT22;11726;50.122;8.832;2022-12-10T01:36:37;1.00;99.90
23114;DHT22;11726;50.122;8.832;2022-12-10T01:39:05;1.00;99.90
23114;DHT22;11726;50.122;8.832;2022-12-10T01:41:36;1.00;99.90
23114;DHT22;11726;50.122;8.832;2022-12-10T01:46:36;0.90;99.90
23114;DHT22;11726;50.122;8.832;2022-12-10T01:49:09;0.90;99.90
23114;DHT22;11726;50.122;8.832;2022-12-10T01:51:37;0.90;99.90
23114;DHT22;11726;50.122;8.832;2022-12-10T01:54:05;0.90;99.90
23114;DHT22;11726;50.122;8.832;2022-12-10T01:56:33;0.80;99.90
23114;DHT22;11726;50.122;8.832;2022-12-10T01:59:01;0.80;99.90
23114;DHT22;11726;50.122;8.832;2022-12-10T02:01:30;0.80;99.90
23114;DHT22;11726;50.122;8.832;2022-12-10T02:06:31;0.70;99.90
23114;DHT22;11726;50.122;8.832;2022-12-10T02:09:02;0.80;99.90
23114;DHT22;11726;50.122;8.832;2022-12-10T02:11:33;0.80;99.90
23114;DHT22;11726;50.122;8.832;2022-12-10T02:14:05;0.80;99.90
23114;DHT22;11726;50.122;8.832;2022-12-10T02:16:40;0.70;99.90
23114;DHT22;11726;50.122;8.832;2022-12-10T02:21:40;0.60;99.90
23114;DHT22;11726;50.122;8.832;2022-12-10T02:24:10;0.60;99.90
23114;DHT22;11726;50.122;8.832;2022-12-10T02:26:42;0.60;99.90
23114;DHT22;11726;50.122;8.832;2022-12-10T02:31:36;0.60;99.90
23114;DHT22;11726;50.122;8.832;2022-12-10T02:34:04;0.70;99.90
23114;DHT22;11726;50.122;8.832;2022-12-10T02:36:34;0.50;99.90
23114;DHT22;11726;50.122;8.832;2022-12-10T02:39:02;0.50;99.90
23114;DHT22;11726;50.122;8.832;2022-12-10T02:41:34;0.50;99.90
23114;DHT22;11726;50.122;8.832;2022-12-10T02:44:02;0.60;99.90
23114;DHT22;11726;50.122;8.832;2022-12-10T02:46:29;0.50;99.90
23114;DHT22;11726;50.122;8.832;2022-12-10T02:48:57;0.50;99.90
23114;DHT22;11726;50.122;8.832;2022-12-10T02:51:24;0.50;99.90
23114;DHT22;11726;50.122;8.832;2022-12-10T02:54:00;0.50;99.90
23114;DHT22;11726;50.122;8.832;2022-12-10T02:56:34;0.40;99.90
23114;DHT22;11726;50.122;8.832;2022-12-10T03:01:36;0.40;99.90
23114;DHT22;11726;50.122;8.832;2022-12-10T03:04:10;0.50;99.90
23114;DHT22;11726;50.122;8.832;2022-12-10T03:06:40;0.50;99.90
23114;DHT22;11726;50.122;8.832;2022-12-10T03:09:11;0.50;99.90
23114;DHT22;11726;50.122;8.832;2022-12-10T03:11:39;0.50;99.90
23114;DHT22;11726;50.122;8.832;2022-12-10T03:14:12;0.60;99.90
23114;DHT22;11726;50.122;8.832;2022-12-10T03:16:44;0.60;99.90
23114;DHT22;11726;50.122;8.832;2022-12-10T03:19:13;0.50;99.90
23114;DHT22;11726;50.122;8.832;2022-12-10T03:21:40;0.40;99.90
23114;DHT22;11726;50.122;8.832;2022-12-10T03:24:08;0.40;99.90
23114;DHT22;11726;50.122;8.832;2022-12-10T03:26:35;0.40;99.90
23114;DHT22;11726;50.122;8.832;2022-12-10T03:29:09;0.30;99.90
23114;DHT22;11726;50.122;8.832;2022-12-10T03:31:37;0.20;99.90
23114;DHT22;11726;50.122;8.832;2022-12-10T03:34:04;0.30;99.90
23114;DHT22;11726;50.122;8.832;2022-12-10T03:36:31;0.20;99.90
23114;DHT22;11726;50.122;8.832;2022-12-10T03:38:58;0.20;99.90
23114;DHT22;11726;50.122;8.832;2022-12-10T03:41:26;0.30;99.90
23114;DHT22;11726;50.122;8.832;2022-12-10T03:43:56;0.30;99.90
23114;DHT22;11726;50.122;8.832;2022-12-10T03:46:23;0.30;99.90
23114;DHT22;11726;50.122;8.832;2022-12-10T03:48:50;0.30;99.90
23114;DHT22;11726;50.122;8.832;2022-12-10T03:51:17;0.30;99.90
23114;DHT22;11726;50.122;8.832;2022-12-10T03:53:44;0.30;99.90
23114;DHT22;11726;50.122;8.832;2022-12-10T03:56:10;0.30;99.90
23114;DHT22;11726;50.122;8.832;2022-12-10T03:58:37;0.40;99.90
23114;DHT22;11726;50.122;8.832;2022-12-10T04:01:03;0.30;99.90
23114;DHT22;11726;50.122;8.832;2022-12-10T04:03:30;0.40;99.90
23114;DHT22;11726;50.122;8.832;2022-12-10T04:06:00;0.30;99.90
23114;DHT22;11726;50.122;8.832;2022-12-10T04:08:27;0.30;99.90
23114;DHT22;11726;50.122;8.832;2022-12-10T04:10:53;0.30;99.90
23114;DHT22;11726;50.122;8.832;2022-12-10T04:13:20;0.30;99.90
23114;DHT22;11726;50.122;8.832;2022-12-10T04:16:05;0.30;99.90
23114;DHT22;11726;50.122;8.832;2022-12-10T04:18:50;0.20;99.90
23114;DHT22;11726;50.122;8.832;2022-12-10T04:21:23;0.20;99.90
23114;DHT22;11726;50.122;8.832;2022-12-10T04:24:09;0.20;99.90
23114;DHT22;11726;50.122;8.832;2022-12-10T04:26:54;0.10;99.90
23114;DHT22;11726;50.122;8.832;2022-12-10T04:29:28;0.10;99.90
23114;DHT22;11726;50.122;8.832;2022-12-10T04:31:55;0.10;99.90
23114;DHT22;11726;50.122;8.832;2022-12-10T04:34:23;-0.10;99.90
23114;DHT22;11726;50.122;8.832;2022-12-10T04:36:50;-0.10;99.90
23114;DHT22;11726;50.122;8.832;2022-12-10T04:39:17;0.00;99.90
23114;DHT22;11726;50.122;8.832;2022-12-10T04:41:44;-0.10;99.90
23114;DHT22;11726;50.122;8.832;2022-12-10T04:44:11;0.00;99.90
23114;DHT22;11726;50.122;8.832;2022-12-10T04:46:38;0.00;99.90
23114;DHT22;11726;50.122;8.832;2022-12-10T04:49:05;0.00;99.90
23114;DHT22;11726;50.122;8.832;2022-12-10T04:51:32;0.00;99.90
23114;DHT22;11726;50.122;8.832;2022-12-10T04:53:58;-0.10;99.90
23114;DHT22;11726;50.122;8.832;2022-12-10T04:56:25;-0.10;99.90
23114;DHT22;11726;50.122;8.832;2022-12-10T04:58:52;-0.10;99.90
23114;DHT22;11726;50.122;8.832;2022-12-10T05:01:18;-0.10;99.90
23114;DHT22;11726;50.122;8.832;2022-12-10T05:03:45;-0.20;99.90
23114;DHT22;11726;50.122;8.832;2022-12-10T05:06:12;-0.20;99.90
23114;DHT22;11726;50.122;8.832;2022-12-10T05:08:39;-0.20;99.90
23114;DHT22;11726;50.122;8.832;2022-12-10T05:11:07;-0.30;99.90
23114;DHT22;11726;50.122;8.832;2022-12-10T05:13:34;-0.30;99.90
23114;DHT22;11726;50.122;8.832;2022-12-10T05:16:01;-0.40;99.90
23114;DHT22;11726;50.122;8.832;2022-12-10T05:18:28;-0.40;99.90
23114;DHT22;11726;50.122;8.832;2022-12-10T05:20:54;-0.30;99.90
23114;DHT22;11726;50.122;8.832;2022-12-10T05:23:21;-0.30;99.90
23114;DHT22;11726;50.122;8.832;2022-12-10T05:26:04;-0.30;99.90
23114;DHT22;11726;50.122;8.832;2022-12-10T05:28:31;-0.30;99.90
23114;DHT22;11726;50.122;8.832;2022-12-10T05:30:58;-0.40;99.90
23114;DHT22;11726;50.122;8.832;2022-12-10T05:33:25;-0.30;99.90
23114;DHT22;11726;50.122;8.832;2022-12-10T05:35:52;-0.30;99.90
23114;DHT22;11726;50.122;8.832;2022-12-10T05:38:19;-0.20;99.90
23114;DHT22;11726;50.122;8.832;2022-12-10T05:40:45;-0.30;99.90
23114;DHT22;11726;50.122;8.832;2022-12-10T05:43:12;-0.20;99.90
23114;DHT22;11726;50.122;8.832;2022-12-10T05:45:38;-0.20;99.90
23114;DHT22;11726;50.122;8.832;2022-12-10T05:48:05;-0.30;99.90
23114;DHT22;11726;50.122;8.832;2022-12-10T05:50:32;-0.30;99.90
23114;DHT22;11726;50.122;8.832;2022-12-10T05:52:58;-0.30;99.90
23114;DHT22;11726;50.122;8.832;2022-12-10T05:55:25;-0.20;99.90
23114;DHT22;11726;50.122;8.832;2022-12-10T05:57:53;-0.20;99.90
23114;DHT22;11726;50.122;8.832;2022-12-10T06:00:20;-0.20;99.90
23114;DHT22;11726;50.122;8.832;2022-12-10T06:02:47;-0.20;99.90
23114;DHT22;11726;50.122;8.832;2022-12-10T06:05:14;-0.20;99.90
23114;DHT22;11726;50.122;8.832;2022-12-10T06:07:40;-0.20;99.90
23114;DHT22;11726;50.122;8.832;2022-12-10T06:10:07;-0.10;99.90
23114;DHT22;11726;50.122;8.832;2022-12-10T06:12:34;0.00;99.90
23114;DHT22;11726;50.122;8.832;2022-12-10T06:15:00;0.00;99.90
23114;DHT22;11726;50.122;8.832;2022-12-10T06:17:27;0.10;99.90
23114;DHT22;11726;50.122;8.832;2022-12-10T06:19:53;0.10;99.90
23114;DHT22;11726;50.122;8.832;2022-12-10T06:22:20;0.20;99.90
23114;DHT22;11726;50.122;8.832;2022-12-10T06:24:46;0.30;99.90
23114;DHT22;11726;50.122;8.832;2022-12-10T06:27:13;0.40;99.90
23114;DHT22;11726;50.122;8.832;2022-12-10T06:29:40;0.50;99.90
23114;DHT22;11726;50.122;8.832;2022-12-10T06:32:06;0.60;99.90
23114;DHT22;11726;50.122;8.832;2022-12-10T06:34:33;0.70;99.90
23114;DHT22;11726;50.122;8.832;2022-12-10T06:37:06;0.70;99.90
23114;DHT22;11726;50.122;8.832;2022-12-10T06:39:33;0.70;99.90
23114;DHT22;11726;50.122;8.832;2022-12-10T06:41:59;0.80;99.90
23114;DHT22;11726;50.122;8.832;2022-12-10T06:44:26;0.90;99.90
23114;DHT22;11726;50.122;8.832;2022-12-10T06:46:52;0.90;99.90
23114;DHT22;11726;50.122;8.832;2022-12-10T06:49:19;1.00;99.90
23114;DHT22;11726;50.122;8.832;2022-12-10T06:51:46;1.00;99.90
23114;DHT22;11726;50.122;8.832;2022-12-10T06:54:14;1.00;99.90
23114;DHT22;11726;50.122;8.832;2022-12-10T06:56:40;1.00;99.90
23114;DHT22;11726;50.122;8.832;2022-12-10T06:59:07;1.00;99.90
23114;DHT22;11726;50.122;8.832;2022-12-10T07:01:33;1.10;99.90
23114;DHT22;11726;50.122;8.832;2022-12-10T07:04:00;1.10;99.90
23114;DHT22;11726;50.122;8.832;2022-12-10T07:06:27;1.10;99.90
23114;DHT22;11726;50.122;8.832;2022-12-10T07:08:54;1.10;99.90
23114;DHT22;11726;50.122;8.832;2022-12-10T07:11:21;1.10;99.90
23114;DHT22;11726;50.122;8.832;2022-12-10T07:13:48;1.10;99.90
23114;DHT22;11726;50.122;8.832;2022-12-10T07:16:17;1.10;99.90
23114;DHT22;11726;50.122;8.832;2022-12-10T07:18:44;1.20;99.90
23114;DHT22;11726;50.122;8.832;2022-12-10T07:21:21;1.10;99.90
23114;DHT22;11726;50.122;8.832;2022-12-10T07:23:48;1.10;99.90
23114;DHT22;11726;50.122;8.832;2022-12-10T07:26:15;1.20;99.90
23114;DHT22;11726;50.122;8.832;2022-12-10T07:28:42;1.20;99.90
23114;DHT22;11726;50.122;8.832;2022-12-10T07:31:18;1.20;99.90
23114;DHT22;11726;50.122;8.832;2022-12-10T07:33:45;1.20;99.90
23114;DHT22;11726;50.122;8.832;2022-12-10T07:36:12;1.20;99.90
23114;DHT22;11726;50.122;8.832;2022-12-10T07:38:39;1.20;99.90
23114;DHT22;11726;50.122;8.832;2022-12-10T07:41:09;1.20;99.90
23114;DHT22;11726;50.122;8.832;2022-12-10T07:43:36;1.30;99.90
23114;DHT22;11726;50.122;8.832;2022-12-10T07:46:04;1.30;99.90
23114;DHT22;11726;50.122;8.832;2022-12-10T07:48:30;1.30;99.90
23114;DHT22;11726;50.122;8.832;2022-12-10T07:50:57;1.20;99.90
23114;DHT22;11726;50.122;8.832;2022-12-10T07:53:24;1.30;99.90
23114;DHT22;11726;50.122;8.832;2022-12-10T07:55:50;1.30;99.90
23114;DHT22;11726;50.122;8.832;2022-12-10T07:58:17;1.30;99.90
23114;DHT22;11726;50.122;8.832;2022-12-10T08:00:43;1.40;99.90
23114;DHT22;11726;50.122;8.832;2022-12-10T08:03:10;1.40;99.90
23114;DHT22;11726;50.122;8.832;2022-12-10T08:05:37;1.40;99.90
23114;DHT22;11726;50.122;8.832;2022-12-10T08:08:03;1.40;99.90
23114;DHT22;11726;50.122;8.832;2022-12-10T08:10:36;1.40;99.90
23114;DHT22;11726;50.122;8.832;2022-12-10T08:13:03;1.40;99.90
23114;DHT22;11726;50.122;8.832;2022-12-10T08:15:30;1.40;99.90
23114;DHT22;11726;50.122;8.832;2022-12-10T08:17:57;1.40;99.90
23114;DHT22;11726;50.122;8.832;2022-12-10T08:20:24;1.40;99.90
23114;DHT22;11726;50.122;8.832;2022-12-10T08:22:50;1.40;99.90
23114;DHT22;11726;50.122;8.832;2022-12-10T08:25:17;1.50;99.90
23114;DHT22;11726;50.122;8.832;2022-12-10T08:27:44;1.50;99.90
23114;DHT22;11726;50.122;8.832;2022-12-10T08:30:10;1.50;99.90
23114;DHT22;11726;50.122;8.832;2022-12-10T08:32:37;1.50;99.90
23114;DHT22;11726;50.122;8.832;2022-12-10T08:35:04;1.60;99.90
23114;DHT22;11726;50.122;8.832;2022-12-10T08:37:30;1.60;99.90
23114;DHT22;11726;50.122;8.832;2022-12-10T08:39:57;1.60;99.90
23114;DHT22;11726;50.122;8.832;2022-12-10T08:42:23;1.70;99.90
23114;DHT22;11726;50.122;8.832;2022-12-10T08:44:50;1.70;99.90
23114;DHT22;11726;50.122;8.832;2022-12-10T08:47:17;1.70;99.90
23114;DHT22;11726;50.122;8.832;2022-12-10T08:49:43;1.80;99.90
23114;DHT22;11726;50.122;8.832;2022-12-10T08:52:10;1.80;99.90
23114;DHT22;11726;50.122;8.832;2022-12-10T08:54:36;1.70;99.90
23114;DHT22;11726;50.122;8.832;2022-12-10T08:57:03;1.80;99.90
23114;DHT22;11726;50.122;8.832;2022-12-10T08:59:29;1.90;99.90
23114;DHT22;11726;50.122;8.832;2022-12-10T09:01:56;1.80;99.90
23114;DHT22;11726;50.122;8.832;2022-12-10T09:04:22;1.90;99.90
23114;DHT22;11726;50.122;8.832;2022-12-10T09:06:49;1.90;99.90
23114;DHT22;11726;50.122;8.832;2022-12-10T09:09:16;1.90;99.90
23114;DHT22;11726;50.122;8.832;2022-12-10T09:11:43;1.90;99.90
23114;DHT22;11726;50.122;8.832;2022-12-10T09:14:12;2.00;99.90
23114;DHT22;11726;50.122;8.832;2022-12-10T09:16:38;1.90;99.90
23114;DHT22;11726;50.122;8.832;2022-12-10T09:19:05;1.90;99.90
23114;DHT22;11726;50.122;8.832;2022-12-10T09:21:32;2.00;99.90
23114;DHT22;11726;50.122;8.832;2022-12-10T09:23:58;2.00;99.90
23114;DHT22;11726;50.122;8.832;2022-12-10T09:26:25;2.10;99.90
23114;DHT22;11726;50.122;8.832;2022-12-10T09:28:52;2.00;99.90
23114;DHT22;11726;50.122;8.832;2022-12-10T09:31:19;2.00;99.90
23114;DHT22;11726;50.122;8.832;2022-12-10T09:33:47;2.00;99.90
23114;DHT22;11726;50.122;8.832;2022-12-10T09:36:14;2.00;99.90
23114;DHT22;11726;50.122;8.832;2022-12-10T09:38:41;2.10;99.90
23114;DHT22;11726;50.122;8.832;2022-12-10T09:46:28;2.00;99.90
23114;DHT22;11726;50.122;8.832;2022-12-10T09:51:43;2.00;99.90
23114;DHT22;11726;50.122;8.832;2022-12-10T09:54:24;2.00;99.90
23114;DHT22;11726;50.122;8.832;2022-12-10T09:56:51;2.10;99.90
23114;DHT22;11726;50.122;8.832;2022-12-10T09:59:32;2.10;99.90
23114;DHT22;11726;50.122;8.832;2022-12-10T10:04:33;2.20;99.90
23114;DHT22;11726;50.122;8.832;2022-12-10T10:07:00;2.20;99.90
23114;DHT22;11726;50.122;8.832;2022-12-10T10:09:26;2.30;99.90
23114;DHT22;11726;50.122;8.832;2022-12-10T10:11:53;2.30;99.90
23114;DHT22;11726;50.122;8.832;2022-12-10T10:14:27;2.40;99.90
23114;DHT22;11726;50.122;8.832;2022-12-10T10:16:56;2.50;99.90
23114;DHT22;11726;50.122;8.832;2022-12-10T10:19:30;2.50;99.90
23114;DHT22;11726;50.122;8.832;2022-12-10T10:21:59;2.50;99.90
23114;DHT22;11726;50.122;8.832;2022-12-10T10:24:34;2.50;99.90
23114;DHT22;11726;50.122;8.832;2022-12-10T10:27:13;2.50;99.90
23114;DHT22;11726;50.122;8.832;2022-12-10T10:29:40;2.50;99.90
23114;DHT22;11726;50.122;8.832;2022-12-10T10:32:11;2.50;99.90
23114;DHT22;11726;50.122;8.832;2022-12-10T10:34:38;2.40;99.90
23114;DHT22;11726;50.122;8.832;2022-12-10T10:37:05;2.30;99.90
23114;DHT22;11726;50.122;8.832;2022-12-10T10:39:32;2.30;99.90
23114;DHT22;11726;50.122;8.832;2022-12-10T10:42:06;2.30;99.90
23114;DHT22;11726;50.122;8.832;2022-12-10T10:44:34;2.30;99.90
23114;DHT22;11726;50.122;8.832;2022-12-10T10:47:02;2.30;99.90
23114;DHT22;11726;50.122;8.832;2022-12-10T10:49:48;2.30;99.90
23114;DHT22;11726;50.122;8.832;2022-12-10T10:52:15;2.40;99.90
23114;DHT22;11726;50.122;8.832;2022-12-10T10:54:43;2.40;99.90
23114;DHT22;11726;50.122;8.832;2022-12-10T10:57:11;2.40;99.90
23114;DHT22;11726;50.122;8.832;2022-12-10T10:59:38;2.30;99.90
23114;DHT22;11726;50.122;8.832;2022-12-10T11:07:02;2.40;99.90
23114;DHT22;11726;50.122;8.832;2022-12-10T11:09:32;2.40;99.90
23114;DHT22;11726;50.122;8.832;2022-12-10T11:12:00;2.50;99.90
23114;DHT22;11726;50.122;8.832;2022-12-10T11:14:32;2.40;99.90
23114;DHT22;11726;50.122;8.832;2022-12-10T11:19:44;2.40;99.90
23114;DHT22;11726;50.122;8.832;2022-12-10T11:22:26;2.50;99.90
23114;DHT22;11726;50.122;8.832;2022-12-10T11:24:53;2.60;99.90
23114;DHT22;11726;50.122;8.832;2022-12-10T11:30:00;2.70;99.90
23114;DHT22;11726;50.122;8.832;2022-12-10T11:32:35;2.70;99.90
23114;DHT22;11726;50.122;8.832;2022-12-10T11:48:08;3.20;99.90
23114;DHT22;11726;50.122;8.832;2022-12-10T11:50:41;3.40;99.90
23114;DHT22;11726;50.122;8.832;2022-12-10T11:55:54;3.10;99.90
23114;DHT22;11726;50.122;8.832;2022-12-10T12:06:30;3.00;99.90
23114;DHT22;11726;50.122;8.832;2022-12-10T12:09:02;3.00;99.90
23114;DHT22;11726;50.122;8.832;2022-12-10T12:16:31;2.70;99.90
23114;DHT22;11726;50.122;8.832;2022-12-10T12:19:05;2.60;99.90
23114;DHT22;11726;50.122;8.832;2022-12-10T12:21:34;2.60;99.90
23114;DHT22;11726;50.122;8.832;2022-12-10T12:26:42;2.80;99.90
23114;DHT22;11726;50.122;8.832;2022-12-10T12:29:20;2.90;99.90
23114;DHT22;11726;50.122;8.832;2022-12-10T12:31:57;3.00;99.90
23114;DHT22;11726;50.122;8.832;2022-12-10T12:34:28;3.10;99.90
23114;DHT22;11726;50.122;8.832;2022-12-10T12:36:59;3.10;99.90
23114;DHT22;11726;50.122;8.832;2022-12-10T12:39:32;3.20;99.90
23114;DHT22;11726;50.122;8.832;2022-12-10T12:42:06;3.20;99.90
23114;DHT22;11726;50.122;8.832;2022-12-10T12:49:56;3.20;99.90
23114;DHT22;11726;50.122;8.832;2022-12-10T12:54:53;3.50;99.90
23114;DHT22;11726;50.122;8.832;2022-12-10T12:57:28;3.60;99.90
23114;DHT22;11726;50.122;8.832;2022-12-10T13:00:09;3.90;99.90
23114;DHT22;11726;50.122;8.832;2022-12-10T13:02:52;4.20;99.90
23114;DHT22;11726;50.122;8.832;2022-12-10T13:05:28;4.10;99.90
23114;DHT22;11726;50.122;8.832;2022-12-10T13:13:29;3.60;99.90
23114;DHT22;11726;50.122;8.832;2022-12-10T13:15:55;3.70;99.90
23114;DHT22;11726;50.122;8.832;2022-12-10T13:18:38;3.70;99.90
23114;DHT22;11726;50.122;8.832;2022-12-10T13:21:25;3.60;99.90
23114;DHT22;11726;50.122;8.832;2022-12-10T13:23:53;3.60;99.90
23114;DHT22;11726;50.122;8.832;2022-12-10T13:26:23;3.70;99.90
23114;DHT22;11726;50.122;8.832;2022-12-10T13:28:51;3.90;99.90
23114;DHT22;11726;50.122;8.832;2022-12-10T13:31:20;4.10;99.90
23114;DHT22;11726;50.122;8.832;2022-12-10T13:36:13;4.10;99.90
23114;DHT22;11726;50.122;8.832;2022-12-10T13:38:56;4.10;99.90
23114;DHT22;11726;50.122;8.832;2022-12-10T13:41:23;4.20;99.90
23114;DHT22;11726;50.122;8.832;2022-12-10T13:46:56;4.10;99.90
23114;DHT22;11726;50.122;8.832;2022-12-10T13:49:24;4.10;99.90
23114;DHT22;11726;50.122;8.832;2022-12-10T13:52:00;4.10;99.90
23114;DHT22;11726;50.122;8.832;2022-12-10T14:02:46;3.50;99.90
23114;DHT22;11726;50.122;8.832;2022-12-10T14:08:23;3.30;99.90
23114;DHT22;11726;50.122;8.832;2022-12-10T14:10:52;3.30;99.90
23114;DHT22;11726;50.122;8.832;2022-12-10T14:13:19;3.20;99.90
23114;DHT22;11726;50.122;8.832;2022-12-10T14:15:51;3.20;99.90
23114;DHT22;11726;50.122;8.832;2022-12-10T14:18:19;3.30;99.90
23114;DHT22;11726;50.122;8.832;2022-12-10T14:20:47;3.20;99.90
23114;DHT22;11726;50.122;8.832;2022-12-10T14:23:28;3.20;99.90
23114;DHT22;11726;50.122;8.832;2022-12-10T14:26:11;3.00;99.90
23114;DHT22;11726;50.122;8.832;2022-12-10T14:28:39;3.00;99.90
23114;DHT22;11726;50.122;8.832;2022-12-10T14:31:07;2.90;99.90
23114;DHT22;11726;50.122;8.832;2022-12-10T14:33:36;3.00;99.90
23114;DHT22;11726;50.122;8.832;2022-12-10T14:36:03;2.90;99.90
23114;DHT22;11726;50.122;8.832;2022-12-10T14:38:30;2.90;99.90
23114;DHT22;11726;50.122;8.832;2022-12-10T14:40:59;2.80;99.90
23114;DHT22;11726;50.122;8.832;2022-12-10T14:43:30;2.70;99.90
23114;DHT22;11726;50.122;8.832;2022-12-10T14:45:59;2.60;99.90
23114;DHT22;11726;50.122;8.832;2022-12-10T14:48:26;2.60;99.90
23114;DHT22;11726;50.122;8.832;2022-12-10T14:50:55;2.60;99.90
23114;DHT22;11726;50.122;8.832;2022-12-10T14:53:23;2.50;99.90
23114;DHT22;11726;50.122;8.832;2022-12-10T14:56:03;2.40;99.90
23114;DHT22;11726;50.122;8.832;2022-12-10T14:58:36;2.40;99.90
23114;DHT22;11726;50.122;8.832;2022-12-10T15:01:13;2.40;99.90
23114;DHT22;11726;50.122;8.832;2022-12-10T15:03:43;2.30;99.90
23114;DHT22;11726;50.122;8.832;2022-12-10T15:06:14;2.30;99.90
23114;DHT22;11726;50.122;8.832;2022-12-10T15:08:42;2.30;99.90
23114;DHT22;11726;50.122;8.832;2022-12-10T15:11:19;2.40;99.90
23114;DHT22;11726;50.122;8.832;2022-12-10T15:13:49;2.30;99.90
23114;DHT22;11726;50.122;8.832;2022-12-10T15:16:18;2.30;99.90
23114;DHT22;11726;50.122;8.832;2022-12-10T15:18:45;2.40;99.90
23114;DHT22;11726;50.122;8.832;2022-12-10T15:21:16;2.30;99.90
23114;DHT22;11726;50.122;8.832;2022-12-10T15:23:46;2.30;99.90
23114;DHT22;11726;50.122;8.832;2022-12-10T15:26:22;2.20;99.90
23114;DHT22;11726;50.122;8.832;2022-12-10T15:28:51;2.10;99.90
23114;DHT22;11726;50.122;8.832;2022-12-10T15:34:01;2.10;99.90
23114;DHT22;11726;50.122;8.832;2022-12-10T15:38:55;2.00;99.90
23114;DHT22;11726;50.122;8.832;2022-12-10T15:43:53;2.00;99.90
23114;DHT22;11726;50.122;8.832;2022-12-10T15:46:22;1.90;99.90
23114;DHT22;11726;50.122;8.832;2022-12-10T15:48:49;1.90;99.90
23114;DHT22;11726;50.122;8.832;2022-12-10T15:51:16;1.80;99.90
23114;DHT22;11726;50.122;8.832;2022-12-10T15:53:42;1.80;99.90
23114;DHT22;11726;50.122;8.832;2022-12-10T15:56:09;1.80;99.90
23114;DHT22;11726;50.122;8.832;2022-12-10T15:58:36;1.70;99.90
23114;DHT22;11726;50.122;8.832;2022-12-10T16:01:02;1.70;99.90
23114;DHT22;11726;50.122;8.832;2022-12-10T16:03:29;1.70;99.90
23114;DHT22;11726;50.122;8.832;2022-12-10T16:05:56;1.70;99.90
23114;DHT22;11726;50.122;8.832;2022-12-10T16:08:23;1.60;99.90
23114;DHT22;11726;50.122;8.832;2022-12-10T16:10:51;1.60;99.90
23114;DHT22;11726;50.122;8.832;2022-12-10T16:13:20;1.60;99.90
23114;DHT22;11726;50.122;8.832;2022-12-10T16:15:51;1.50;99.90
23114;DHT22;11726;50.122;8.832;2022-12-10T16:18:18;1.50;99.90
23114;DHT22;11726;50.122;8.832;2022-12-10T16:20:45;1.50;99.90
23114;DHT22;11726;50.122;8.832;2022-12-10T16:23:12;1.40;99.90
23114;DHT22;11726;50.122;8.832;2022-12-10T16:25:41;1.30;99.90
23114;DHT22;11726;50.122;8.832;2022-12-10T16:28:11;1.30;99.90
23114;DHT22;11726;50.122;8.832;2022-12-10T16:30:48;1.30;99.90
23114;DHT22;11726;50.122;8.832;2022-12-10T16:33:15;1.20;99.90
23114;DHT22;11726;50.122;8.832;2022-12-10T16:35:44;1.10;99.90
23114;DHT22;11726;50.122;8.832;2022-12-10T16:38:11;1.10;99.90
23114;DHT22;11726;50.122;8.832;2022-12-10T16:40:39;1.10;99.90
23114;DHT22;11726;50.122;8.832;2022-12-10T16:43:06;1.10;99.90
23114;DHT22;11726;50.122;8.832;2022-12-10T16:45:36;1.10;99.90
23114;DHT22;11726;50.122;8.832;2022-12-10T16:48:04;0.90;99.90
23114;DHT22;11726;50.122;8.832;2022-12-10T16:50:30;1.00;99.90
23114;DHT22;11726;50.122;8.832;2022-12-10T16:52:57;1.00;99.90
23114;DHT22;11726;50.122;8.832;2022-12-10T16:55:25;0.90;99.90
23114;DHT22;11726;50.122;8.832;2022-12-10T16:57:52;0.90;99.90
23114;DHT22;11726;50.122;8.832;2022-12-10T17:00:20;1.00;99.90
23114;DHT22;11726;50.122;8.832;2022-12-10T17:02:48;0.90;99.90
23114;DHT22;11726;50.122;8.832;2022-12-10T17:07:53;0.80;99.90
23114;DHT22;11726;50.122;8.832;2022-12-10T17:10:20;0.90;99.90
23114;DHT22;11726;50.122;8.832;2022-12-10T17:13:12;0.80;99.90
23114;DHT22;11726;50.122;8.832;2022-12-10T17:15:40;0.80;99.90
23114;DHT22;11726;50.122;8.832;2022-12-10T17:18:13;0.80;99.90
23114;DHT22;11726;50.122;8.832;2022-12-10T17:20:40;0.80;99.90
23114;DHT22;11726;50.122;8.832;2022-12-10T17:23:07;0.70;99.90
23114;DHT22;11726;50.122;8.832;2022-12-10T17:25:33;0.60;99.90
23114;DHT22;11726;50.122;8.832;2022-12-10T17:28:00;0.50;99.90
23114;DHT22;11726;50.122;8.832;2022-12-10T17:30:27;0.40;99.90
23114;DHT22;11726;50.122;8.832;2022-12-10T17:32:53;0.40;99.90
23114;DHT22;11726;50.122;8.832;2022-12-10T17:35:20;0.40;99.90
23114;DHT22;11726;50.122;8.832;2022-12-10T17:37:47;0.40;99.90
23114;DHT22;11726;50.122;8.832;2022-12-10T17:40:17;0.50;99.90